sensor_id;sensor_type;location;lat;lon;timestamp;pressure;altitude;pressure_sealevel;temperature;humidity
52249;BME280;38541;48.130;8.378;2023-03-23T00:02:31;92274.03;;;8.98;65.20
52249;BME280;38541;48.130;8.378;2023-03-23T00:05:05;92281.13;;;8.97;65.05
52249;BME280;38541;48.130;8.378;2023-03-23T00:07:32;92282.44;;;8.95;65.27
52249;BME280;38541;48.130;8.378;2023-03-23T00:09:58;92273.00;;;8.94;65.67
52249;BME280;38541;48.130;8.378;2023-03-23T00:12:26;92276.13;;;8.96;65.48
52249;BME280;38541;48.130;8.378;2023-03-23T00:15:08;92277.19;;;9.00;65.64
52249;BME280;38541;48.130;8.378;2023-03-23T00:17:34;92269.06;;;9.02;66.02
52249;BME280;38541;48.130;8.378;2023-03-23T00:20:01;92271.16;;;8.99;65.58
52249;BME280;38541;48.130;8.378;2023-03-23T00:22:29;92273.03;;;8.83;65.34
52249;BME280;38541;48.130;8.378;2023-03-23T00:24:55;92264.38;;;8.83;65.24
52249;BME280;38541;48.130;8.378;2023-03-23T00:27:21;92260.44;;;8.80;66.14
52249;BME280;38541;48.130;8.378;2023-03-23T00:29:49;92259.13;;;8.78;65.91
52249;BME280;38541;48.130;8.378;2023-03-23T00:32:20;92260.97;;;8.72;65.79
52249;BME280;38541;48.130;8.378;2023-03-23T00:34:53;92254.41;;;8.59;65.91
52249;BME280;38541;48.130;8.378;2023-03-23T00:37:18;92252.56;;;8.60;65.90
52249;BME280;38541;48.130;8.378;2023-03-23T00:39:44;92242.63;;;8.56;66.51
52249;BME280;38541;48.130;8.378;2023-03-23T00:42:15;92246.50;;;8.49;66.51
52249;BME280;38541;48.130;8.378;2023-03-23T00:44:42;92237.88;;;8.48;66.70
52249;BME280;38541;48.130;8.378;2023-03-23T00:47:09;92242.88;;;8.50;66.06
52249;BME280;38541;48.130;8.378;2023-03-23T00:49:37;92246.78;;;8.47;66.52
52249;BME280;38541;48.130;8.378;2023-03-23T00:52:05;92239.22;;;8.51;66.37
52249;BME280;38541;48.130;8.378;2023-03-23T00:54:31;92241.53;;;8.42;66.64
52249;BME280;38541;48.130;8.378;2023-03-23T00:56:57;92242.09;;;8.44;67.71
52249;BME280;38541;48.130;8.378;2023-03-23T00:59:22;92236.31;;;8.47;67.11
52249;BME280;38541;48.130;8.378;2023-03-23T01:01:49;92235.28;;;8.48;67.25
52249;BME280;38541;48.130;8.378;2023-03-23T01:04:15;92230.28;;;8.47;67.22
52249;BME280;38541;48.130;8.378;2023-03-23T01:06:43;92239.19;;;8.40;66.89
52249;BME280;38541;48.130;8.378;2023-03-23T01:09:14;92229.50;;;8.41;67.39
52249;BME280;38541;48.130;8.378;2023-03-23T01:11:44;92230.53;;;8.35;67.17
52249;BME280;38541;48.130;8.378;2023-03-23T01:14:12;92233.44;;;8.38;67.36
52249;BME280;38541;48.130;8.378;2023-03-23T01:16:38;92217.44;;;8.40;67.52
52249;BME280;38541;48.130;8.378;2023-03-23T01:19:04;92229.53;;;8.67;64.92
52249;BME280;38541;48.130;8.378;2023-03-23T01:21:29;92226.63;;;8.89;65.19
52249;BME280;38541;48.130;8.378;2023-03-23T01:23:55;92215.91;;;8.85;64.70
52249;BME280;38541;48.130;8.378;2023-03-23T01:26:23;92218.00;;;8.94;64.67
52249;BME280;38541;48.130;8.378;2023-03-23T01:28:50;92226.88;;;9.08;63.84
52249;BME280;38541;48.130;8.378;2023-03-23T01:31:18;92222.66;;;9.23;63.14
52249;BME280;38541;48.130;8.378;2023-03-23T01:33:44;92224.72;;;9.41;62.55
52249;BME280;38541;48.130;8.378;2023-03-23T01:36:13;92212.88;;;9.49;62.41
52249;BME280;38541;48.130;8.378;2023-03-23T01:38:41;92210.72;;;9.67;62.30
52249;BME280;38541;48.130;8.378;2023-03-23T01:41:07;92198.31;;;9.83;61.02
52249;BME280;38541;48.130;8.378;2023-03-23T01:43:33;92197.94;;;10.00;60.97
52249;BME280;38541;48.130;8.378;2023-03-23T01:45:59;92191.28;;;10.13;60.60
52249;BME280;38541;48.130;8.378;2023-03-23T01:51:14;92196.50;;;10.23;59.96
52249;BME280;38541;48.130;8.378;2023-03-23T01:53:48;92194.34;;;10.31;59.35
52249;BME280;38541;48.130;8.378;2023-03-23T01:56:19;92184.31;;;10.38;59.62
52249;BME280;38541;48.130;8.378;2023-03-23T01:58:45;92184.03;;;10.45;58.86
52249;BME280;38541;48.130;8.378;2023-03-23T02:01:13;92190.00;;;10.50;59.08
52249;BME280;38541;48.130;8.378;2023-03-23T02:03:42;92186.56;;;10.55;58.62
52249;BME280;38541;48.130;8.378;2023-03-23T02:06:10;92188.13;;;10.61;58.09
52249;BME280;38541;48.130;8.378;2023-03-23T02:08:44;92187.28;;;10.66;58.46
52249;BME280;38541;48.130;8.378;2023-03-23T02:11:16;92184.09;;;10.69;58.03
52249;BME280;38541;48.130;8.378;2023-03-23T02:13:43;92174.69;;;10.63;59.71
52249;BME280;38541;48.130;8.378;2023-03-23T02:16:25;92172.34;;;10.61;59.78
52249;BME280;38541;48.130;8.378;2023-03-23T02:18:58;92164.50;;;10.56;59.88
52249;BME280;38541;48.130;8.378;2023-03-23T02:24:36;92168.28;;;10.39;60.10
52249;BME280;38541;48.130;8.378;2023-03-23T02:27:35;92168.53;;;10.43;60.31
52249;BME280;38541;48.130;8.378;2023-03-23T02:30:35;92175.00;;;10.56;59.14
52249;BME280;38541;48.130;8.378;2023-03-23T02:36:00;92146.47;;;10.74;57.86
52249;BME280;38541;48.130;8.378;2023-03-23T02:42:25;92147.22;;;10.50;60.63
52249;BME280;38541;48.130;8.378;2023-03-23T02:44:26;92150.75;;;10.35;61.56
52249;BME280;38541;48.130;8.378;2023-03-23T02:46:57;92139.75;;;10.27;61.85
52249;BME280;38541;48.130;8.378;2023-03-23T02:49:25;92141.63;;;10.22;61.83
52249;BME280;38541;48.130;8.378;2023-03-23T02:51:54;92145.66;;;10.14;62.54
52249;BME280;38541;48.130;8.378;2023-03-23T02:54:22;92146.47;;;10.09;62.34
52249;BME280;38541;48.130;8.378;2023-03-23T02:56:52;92141.25;;;9.99;62.38
52249;BME280;38541;48.130;8.378;2023-03-23T02:59:25;92143.16;;;9.88;63.09
52249;BME280;38541;48.130;8.378;2023-03-23T03:02:13;92146.72;;;9.68;63.90
52249;BME280;38541;48.130;8.378;2023-03-23T03:04:40;92137.56;;;9.60;64.04
52249;BME280;38541;48.130;8.378;2023-03-23T03:07:32;92129.22;;;9.48;63.98
52249;BME280;38541;48.130;8.378;2023-03-23T03:13:23;92128.78;;;9.30;64.26
52249;BME280;38541;48.130;8.378;2023-03-23T03:15:55;92123.53;;;9.30;64.63
52249;BME280;38541;48.130;8.378;2023-03-23T03:18:30;92136.94;;;9.28;64.79
52249;BME280;38541;48.130;8.378;2023-03-23T03:21:04;92130.63;;;9.24;64.98
52249;BME280;38541;48.130;8.378;2023-03-23T03:23:34;92137.47;;;9.20;64.73
52249;BME280;38541;48.130;8.378;2023-03-23T03:26:03;92139.81;;;9.27;64.75
52249;BME280;38541;48.130;8.378;2023-03-23T03:28:40;92137.16;;;9.32;64.52
52249;BME280;38541;48.130;8.378;2023-03-23T03:31:07;92136.69;;;9.25;64.83
52249;BME280;38541;48.130;8.378;2023-03-23T03:33:33;92130.91;;;9.28;64.99
52249;BME280;38541;48.130;8.378;2023-03-23T03:36:03;92133.25;;;9.24;65.49
52249;BME280;38541;48.130;8.378;2023-03-23T03:38:28;92126.47;;;9.18;65.24
52249;BME280;38541;48.130;8.378;2023-03-23T03:40:56;92119.94;;;9.16;65.44
52249;BME280;38541;48.130;8.378;2023-03-23T03:43:22;92117.63;;;9.04;65.29
52249;BME280;38541;48.130;8.378;2023-03-23T03:45:48;92122.09;;;8.93;66.05
52249;BME280;38541;48.130;8.378;2023-03-23T03:48:13;92113.75;;;8.80;66.11
52249;BME280;38541;48.130;8.378;2023-03-23T03:50:39;92117.97;;;8.81;66.21
52249;BME280;38541;48.130;8.378;2023-03-23T03:53:06;92128.44;;;8.81;65.90
52249;BME280;38541;48.130;8.378;2023-03-23T03:55:32;92123.97;;;8.82;65.86
52249;BME280;38541;48.130;8.378;2023-03-23T03:58:02;92120.81;;;8.85;65.20
52249;BME280;38541;48.130;8.378;2023-03-23T04:00:48;92121.59;;;8.91;65.42
52249;BME280;38541;48.130;8.378;2023-03-23T04:03:18;92112.16;;;8.95;66.02
52249;BME280;38541;48.130;8.378;2023-03-23T04:05:57;92098.50;;;8.98;65.51
52249;BME280;38541;48.130;8.378;2023-03-23T04:08:25;92100.06;;;8.99;65.77
52249;BME280;38541;48.130;8.378;2023-03-23T04:10:52;92108.47;;;8.96;65.81
52249;BME280;38541;48.130;8.378;2023-03-23T04:13:20;92114.50;;;8.96;65.53
52249;BME280;38541;48.130;8.378;2023-03-23T04:15:48;92114.75;;;9.00;65.48
52249;BME280;38541;48.130;8.378;2023-03-23T04:18:15;92114.47;;;9.02;65.63
52249;BME280;38541;48.130;8.378;2023-03-23T04:20:45;92106.09;;;9.05;65.21
52249;BME280;38541;48.130;8.378;2023-03-23T04:23:15;92108.44;;;9.06;65.15
52249;BME280;38541;48.130;8.378;2023-03-23T04:25:46;92116.03;;;9.08;65.64
52249;BME280;38541;48.130;8.378;2023-03-23T04:28:13;92122.06;;;9.08;65.32
52249;BME280;38541;48.130;8.378;2023-03-23T04:30:48;92126.25;;;9.09;64.92
52249;BME280;38541;48.130;8.378;2023-03-23T04:33:14;92122.31;;;9.07;64.88
52249;BME280;38541;48.130;8.378;2023-03-23T04:35:45;92117.59;;;9.09;64.75
52249;BME280;38541;48.130;8.378;2023-03-23T04:38:19;92119.97;;;9.10;64.55
52249;BME280;38541;48.130;8.378;2023-03-23T04:40:53;92125.47;;;9.14;64.24
52249;BME280;38541;48.130;8.378;2023-03-23T04:43:32;92124.91;;;9.17;64.08
52249;BME280;38541;48.130;8.378;2023-03-23T04:46:04;92130.94;;;9.18;64.69
52249;BME280;38541;48.130;8.378;2023-03-23T04:48:34;92111.56;;;9.13;65.20
52249;BME280;38541;48.130;8.378;2023-03-23T04:51:09;92110.56;;;9.04;64.92
52249;BME280;38541;48.130;8.378;2023-03-23T04:53:36;92119.72;;;9.02;64.99
52249;BME280;38541;48.130;8.378;2023-03-23T04:56:02;92123.16;;;9.02;65.44
52249;BME280;38541;48.130;8.378;2023-03-23T04:58:33;92129.97;;;8.93;66.37
52249;BME280;38541;48.130;8.378;2023-03-23T05:01:16;92124.22;;;8.85;66.02
52249;BME280;38541;48.130;8.378;2023-03-23T05:03:52;92129.47;;;8.80;66.62
52249;BME280;38541;48.130;8.378;2023-03-23T05:06:17;92122.41;;;8.81;66.76
52249;BME280;38541;48.130;8.378;2023-03-23T05:08:44;92117.44;;;8.84;66.46
52249;BME280;38541;48.130;8.378;2023-03-23T05:11:10;92122.66;;;8.84;66.70
52249;BME280;38541;48.130;8.378;2023-03-23T05:13:38;92137.59;;;8.84;66.39
52249;BME280;38541;48.130;8.378;2023-03-23T05:16:06;92132.09;;;8.85;66.84
52249;BME280;38541;48.130;8.378;2023-03-23T05:18:34;92126.31;;;8.89;66.54
52249;BME280;38541;48.130;8.378;2023-03-23T05:21:03;92128.66;;;8.90;66.36
52249;BME280;38541;48.130;8.378;2023-03-23T05:23:33;92130.00;;;8.88;66.32
52249;BME280;38541;48.130;8.378;2023-03-23T05:26:07;92124.47;;;8.94;66.21
52249;BME280;38541;48.130;8.378;2023-03-23T05:28:32;92136.75;;;8.99;66.46
52249;BME280;38541;48.130;8.378;2023-03-23T05:31:05;92122.84;;;9.04;65.16
52249;BME280;38541;48.130;8.378;2023-03-23T05:33:32;92126.25;;;9.09;64.97
52249;BME280;38541;48.130;8.378;2023-03-23T05:36:05;92121.81;;;9.10;65.22
52249;BME280;38541;48.130;8.378;2023-03-23T05:38:52;92115.72;;;9.25;63.66
52249;BME280;38541;48.130;8.378;2023-03-23T05:41:18;92117.22;;;9.41;62.76
52249;BME280;38541;48.130;8.378;2023-03-23T05:43:44;92121.88;;;9.50;62.24
52249;BME280;38541;48.130;8.378;2023-03-23T05:46:30;92120.16;;;9.80;59.96
52249;BME280;38541;48.130;8.378;2023-03-23T05:48:58;92121.28;;;10.03;59.33
52249;BME280;38541;48.130;8.378;2023-03-23T05:51:31;92124.28;;;10.26;58.41
52249;BME280;38541;48.130;8.378;2023-03-23T05:53:57;92135.19;;;10.38;57.94
52249;BME280;38541;48.130;8.378;2023-03-23T05:56:22;92131.47;;;10.50;58.07
52249;BME280;38541;48.130;8.378;2023-03-23T05:59:09;92138.47;;;10.60;57.68
52249;BME280;38541;48.130;8.378;2023-03-23T06:01:37;92145.72;;;10.73;56.93
52249;BME280;38541;48.130;8.378;2023-03-23T06:04:03;92159.47;;;10.89;56.95
52249;BME280;38541;48.130;8.378;2023-03-23T06:06:45;92169.38;;;10.97;56.93
52249;BME280;38541;48.130;8.378;2023-03-23T06:09:11;92164.09;;;11.03;56.83
52249;BME280;38541;48.130;8.378;2023-03-23T06:12:06;92167.88;;;11.16;57.23
52249;BME280;38541;48.130;8.378;2023-03-23T06:14:42;92169.97;;;11.19;57.12
52249;BME280;38541;48.130;8.378;2023-03-23T06:17:08;92176.72;;;11.25;57.17
52249;BME280;38541;48.130;8.378;2023-03-23T06:19:34;92189.38;;;11.23;57.34
52249;BME280;38541;48.130;8.378;2023-03-23T06:22:09;92194.06;;;11.26;57.35
52249;BME280;38541;48.130;8.378;2023-03-23T06:24:55;92199.63;;;11.24;57.64
52249;BME280;38541;48.130;8.378;2023-03-23T06:27:28;92202.81;;;11.21;57.69
52249;BME280;38541;48.130;8.378;2023-03-23T06:29:54;92205.13;;;11.23;57.68
52249;BME280;38541;48.130;8.378;2023-03-23T06:32:21;92193.53;;;11.29;58.44
52249;BME280;38541;48.130;8.378;2023-03-23T06:34:48;92202.19;;;11.30;59.07
52249;BME280;38541;48.130;8.378;2023-03-23T06:37:32;92208.06;;;11.21;59.41
52249;BME280;38541;48.130;8.378;2023-03-23T06:40:05;92218.63;;;11.16;58.96
52249;BME280;38541;48.130;8.378;2023-03-23T06:42:37;92213.88;;;11.18;59.64
52249;BME280;38541;48.130;8.378;2023-03-23T06:45:22;92211.06;;;11.09;60.35
52249;BME280;38541;48.130;8.378;2023-03-23T06:47:53;92223.25;;;11.00;60.56
52249;BME280;38541;48.130;8.378;2023-03-23T06:50:19;92210.84;;;11.06;61.56
52249;BME280;38541;48.130;8.378;2023-03-23T06:52:46;92213.72;;;11.04;61.30
52249;BME280;38541;48.130;8.378;2023-03-23T06:55:12;92203.72;;;11.06;61.85
52249;BME280;38541;48.130;8.378;2023-03-23T06:57:38;92203.72;;;11.06;61.66
52249;BME280;38541;48.130;8.378;2023-03-23T07:00:04;92203.69;;;11.11;62.11
52249;BME280;38541;48.130;8.378;2023-03-23T07:02:42;92205.81;;;11.09;61.98
52249;BME280;38541;48.130;8.378;2023-03-23T07:05:09;92208.88;;;11.17;62.72
52249;BME280;38541;48.130;8.378;2023-03-23T07:07:36;92202.91;;;11.11;62.68
52249;BME280;38541;48.130;8.378;2023-03-23T07:10:14;92204.47;;;11.12;62.84
52249;BME280;38541;48.130;8.378;2023-03-23T07:12:40;92210.28;;;11.09;63.13
52249;BME280;38541;48.130;8.378;2023-03-23T07:15:08;92215.81;;;11.07;62.70
52249;BME280;38541;48.130;8.378;2023-03-23T07:17:37;92212.41;;;11.07;63.12
52249;BME280;38541;48.130;8.378;2023-03-23T07:20:11;92220.00;;;11.08;63.26
52249;BME280;38541;48.130;8.378;2023-03-23T07:22:37;92230.47;;;11.13;63.32
52249;BME280;38541;48.130;8.378;2023-03-23T07:25:11;92223.66;;;11.12;62.96
52249;BME280;38541;48.130;8.378;2023-03-23T07:27:46;92229.75;;;11.08;63.48
52249;BME280;38541;48.130;8.378;2023-03-23T07:30:13;92236.81;;;11.12;63.76
52249;BME280;38541;48.130;8.378;2023-03-23T07:32:40;92232.00;;;11.20;63.80
52249;BME280;38541;48.130;8.378;2023-03-23T07:35:08;92230.03;;;11.31;63.62
52249;BME280;38541;48.130;8.378;2023-03-23T07:37:57;92223.78;;;11.26;64.41
52249;BME280;38541;48.130;8.378;2023-03-23T07:40:23;92224.63;;;11.46;64.04
52249;BME280;38541;48.130;8.378;2023-03-23T07:42:54;92226.47;;;11.46;63.52
52249;BME280;38541;48.130;8.378;2023-03-23T07:45:46;92227.53;;;11.45;65.19
52249;BME280;38541;48.130;8.378;2023-03-23T07:48:13;92232.91;;;11.34;64.10
52249;BME280;38541;48.130;8.378;2023-03-23T07:50:39;92231.03;;;11.40;65.16
52249;BME280;38541;48.130;8.378;2023-03-23T07:53:09;92238.56;;;11.47;65.07
52249;BME280;38541;48.130;8.378;2023-03-23T07:55:36;92241.75;;;11.68;64.37
52249;BME280;38541;48.130;8.378;2023-03-23T07:58:06;92238.50;;;11.52;64.11
52249;BME280;38541;48.130;8.378;2023-03-23T08:00:32;92257.94;;;11.56;64.33
52249;BME280;38541;48.130;8.378;2023-03-23T08:03:05;92248.81;;;11.48;65.49
52249;BME280;38541;48.130;8.378;2023-03-23T08:05:51;92249.47;;;11.35;65.48
52249;BME280;38541;48.130;8.378;2023-03-23T08:08:27;92254.13;;;11.43;66.31
52249;BME280;38541;48.130;8.378;2023-03-23T08:11:12;92263.34;;;11.40;65.10
52249;BME280;38541;48.130;8.378;2023-03-23T08:13:51;92248.13;;;11.37;65.28
52249;BME280;38541;48.130;8.378;2023-03-23T08:16:42;92254.91;;;11.44;65.59
52249;BME280;38541;48.130;8.378;2023-03-23T08:19:26;92257.31;;;11.40;66.06
52249;BME280;38541;48.130;8.378;2023-03-23T08:22:19;92258.25;;;11.49;65.50
52249;BME280;38541;48.130;8.378;2023-03-23T08:25:05;92260.34;;;11.28;65.97
52249;BME280;38541;48.130;8.378;2023-03-23T08:27:43;92270.28;;;11.31;66.81
52249;BME280;38541;48.130;8.378;2023-03-23T08:30:30;92269.16;;;11.37;65.97
52249;BME280;38541;48.130;8.378;2023-03-23T08:33:28;92280.13;;;11.45;64.68
52249;BME280;38541;48.130;8.378;2023-03-23T08:36:09;92279.25;;;11.30;65.40
52249;BME280;38541;48.130;8.378;2023-03-23T08:38:49;92277.75;;;11.19;65.52
52249;BME280;38541;48.130;8.378;2023-03-23T08:41:35;92283.00;;;11.19;66.35
52249;BME280;38541;48.130;8.378;2023-03-23T08:44:14;92280.88;;;11.21;66.24
52249;BME280;38541;48.130;8.378;2023-03-23T08:46:56;92305.72;;;11.09;66.96
52249;BME280;38541;48.130;8.378;2023-03-23T08:49:51;92294.41;;;11.09;67.65
52249;BME280;38541;48.130;8.378;2023-03-23T08:52:34;92318.19;;;11.28;67.88
52249;BME280;38541;48.130;8.378;2023-03-23T08:55:13;92293.06;;;11.11;67.90
52249;BME280;38541;48.130;8.378;2023-03-23T08:57:58;92284.81;;;11.23;67.70
52249;BME280;38541;48.130;8.378;2023-03-23T09:00:43;92290.81;;;11.29;67.80
52249;BME280;38541;48.130;8.378;2023-03-23T09:03:16;92288.72;;;11.26;68.70
52249;BME280;38541;48.130;8.378;2023-03-23T09:06:03;92286.47;;;11.44;68.15
52249;BME280;38541;48.130;8.378;2023-03-23T09:08:35;92299.75;;;11.58;67.70
52249;BME280;38541;48.130;8.378;2023-03-23T09:11:03;92291.22;;;11.41;67.29
52249;BME280;38541;48.130;8.378;2023-03-23T09:13:29;92299.94;;;11.66;66.75
52249;BME280;38541;48.130;8.378;2023-03-23T09:15:55;92302.78;;;11.70;66.87
52249;BME280;38541;48.130;8.378;2023-03-23T09:18:20;92305.19;;;11.91;67.46
52249;BME280;38541;48.130;8.378;2023-03-23T09:20:49;92309.22;;;11.83;66.34
52249;BME280;38541;48.130;8.378;2023-03-23T09:23:14;92306.69;;;11.73;65.07
52249;BME280;38541;48.130;8.378;2023-03-23T09:25:40;92306.38;;;11.79;65.93
52249;BME280;38541;48.130;8.378;2023-03-23T09:28:06;92302.22;;;11.97;65.84
52249;BME280;38541;48.130;8.378;2023-03-23T09:30:33;92316.28;;;12.12;65.25
52249;BME280;38541;48.130;8.378;2023-03-23T09:33:03;92308.63;;;12.16;64.91
52249;BME280;38541;48.130;8.378;2023-03-23T09:35:30;92311.69;;;12.23;64.21
52249;BME280;38541;48.130;8.378;2023-03-23T09:37:57;92297.88;;;12.12;64.42
52249;BME280;38541;48.130;8.378;2023-03-23T09:40:35;92300.78;;;12.10;64.11
52249;BME280;38541;48.130;8.378;2023-03-23T09:45:51;92292.22;;;12.43;64.00
52249;BME280;38541;48.130;8.378;2023-03-23T09:53:58;92297.69;;;12.47;63.43
52249;BME280;38541;48.130;8.378;2023-03-23T09:56:30;92297.97;;;12.45;62.80
52249;BME280;38541;48.130;8.378;2023-03-23T09:59:08;92309.16;;;12.75;62.12
52249;BME280;38541;48.130;8.378;2023-03-23T10:01:45;92300.91;;;12.63;61.90
52249;BME280;38541;48.130;8.378;2023-03-23T10:04:34;92324.19;;;12.75;60.70
52249;BME280;38541;48.130;8.378;2023-03-23T10:09:46;92324.25;;;12.89;60.12
52249;BME280;38541;48.130;8.378;2023-03-23T10:15:05;92320.31;;;13.05;60.57
52249;BME280;38541;48.130;8.378;2023-03-23T10:17:49;92328.44;;;13.09;59.50
52249;BME280;38541;48.130;8.378;2023-03-23T10:20:28;92336.63;;;13.07;59.04
52249;BME280;38541;48.130;8.378;2023-03-23T10:23:13;92333.28;;;13.02;59.53
52249;BME280;38541;48.130;8.378;2023-03-23T10:25:48;92324.78;;;13.24;58.88
52249;BME280;38541;48.130;8.378;2023-03-23T10:28:43;92351.06;;;13.29;58.01
52249;BME280;38541;48.130;8.378;2023-03-23T10:31:13;92343.47;;;13.08;59.29
52249;BME280;38541;48.130;8.378;2023-03-23T10:33:42;92342.50;;;13.04;58.31
52249;BME280;38541;48.130;8.378;2023-03-23T10:36:17;92335.56;;;13.08;58.54
52249;BME280;38541;48.130;8.378;2023-03-23T10:38:59;92327.06;;;13.31;58.79
52249;BME280;38541;48.130;8.378;2023-03-23T10:41:26;92341.94;;;13.40;59.82
52249;BME280;38541;48.130;8.378;2023-03-23T10:43:52;92339.28;;;13.40;58.31
52249;BME280;38541;48.130;8.378;2023-03-23T10:48:53;92332.25;;;13.36;58.08
52249;BME280;38541;48.130;8.378;2023-03-23T10:51:23;92351.06;;;13.29;58.50
52249;BME280;38541;48.130;8.378;2023-03-23T10:53:56;92338.16;;;13.47;56.72
52249;BME280;38541;48.130;8.378;2023-03-23T10:56:28;92336.25;;;13.66;57.17
52249;BME280;38541;48.130;8.378;2023-03-23T10:58:54;92344.66;;;13.82;55.84
52249;BME280;38541;48.130;8.378;2023-03-23T11:01:29;92330.00;;;13.90;55.14
52249;BME280;38541;48.130;8.378;2023-03-23T11:03:55;92330.00;;;13.90;55.28
52249;BME280;38541;48.130;8.378;2023-03-23T11:06:30;92328.25;;;14.00;55.60
52249;BME280;38541;48.130;8.378;2023-03-23T11:09:08;92316.25;;;13.93;53.95
52249;BME280;38541;48.130;8.378;2023-03-23T11:11:40;92329.22;;;14.18;54.82
52249;BME280;38541;48.130;8.378;2023-03-23T11:14:30;92326.88;;;14.02;53.69
52249;BME280;38541;48.130;8.378;2023-03-23T11:17:00;92328.38;;;13.94;53.99
52249;BME280;38541;48.130;8.378;2023-03-23T11:19:34;92317.81;;;14.08;54.07
52249;BME280;38541;48.130;8.378;2023-03-23T11:24:35;92333.28;;;14.66;52.76
52249;BME280;38541;48.130;8.378;2023-03-23T11:27:03;92322.91;;;14.69;51.84
52249;BME280;38541;48.130;8.378;2023-03-23T11:29:32;92310.38;;;14.75;51.75
52249;BME280;38541;48.130;8.378;2023-03-23T11:34:32;92312.09;;;15.39;52.24
52249;BME280;38541;48.130;8.378;2023-03-23T11:37:05;92324.84;;;15.37;51.70
52249;BME280;38541;48.130;8.378;2023-03-23T11:39:34;92319.31;;;15.48;50.33
52249;BME280;38541;48.130;8.378;2023-03-23T11:42:16;92325.78;;;15.41;49.96
52249;BME280;38541;48.130;8.378;2023-03-23T11:44:44;92324.44;;;14.98;50.02
52249;BME280;38541;48.130;8.378;2023-03-23T11:47:29;92333.31;;;14.80;49.95
52249;BME280;38541;48.130;8.378;2023-03-23T11:52:44;92319.50;;;15.06;49.35
52249;BME280;38541;48.130;8.378;2023-03-23T11:55:28;92332.31;;;15.35;49.51
52249;BME280;38541;48.130;8.378;2023-03-23T11:58:00;92309.22;;;15.27;47.85
52249;BME280;38541;48.130;8.378;2023-03-23T12:00:26;92317.78;;;15.33;48.10
52249;BME280;38541;48.130;8.378;2023-03-23T12:06:12;92317.25;;;15.67;47.28
52249;BME280;38541;48.130;8.378;2023-03-23T12:14:16;92321.66;;;15.81;47.06
52249;BME280;38541;48.130;8.378;2023-03-23T12:20:46;92337.41;;;14.86;47.94
52249;BME280;38541;48.130;8.378;2023-03-23T12:37:45;92304.03;;;14.48;49.94
52249;BME280;38541;48.130;8.378;2023-03-23T12:43:19;92295.13;;;14.58;50.75
52249;BME280;38541;48.130;8.378;2023-03-23T12:46:08;92301.72;;;14.47;50.21
52249;BME280;38541;48.130;8.378;2023-03-23T12:51:36;92299.28;;;14.50;50.50
52249;BME280;38541;48.130;8.378;2023-03-23T12:57:15;92286.50;;;14.66;51.09
52249;BME280;38541;48.130;8.378;2023-03-23T12:59:57;92284.91;;;14.79;50.21
52249;BME280;38541;48.130;8.378;2023-03-23T13:02:36;92289.31;;;14.70;50.39
52249;BME280;38541;48.130;8.378;2023-03-23T13:05:29;92289.97;;;14.90;50.79
52249;BME280;38541;48.130;8.378;2023-03-23T13:08:02;92289.59;;;14.82;49.13
52249;BME280;38541;48.130;8.378;2023-03-23T13:10:34;92282.38;;;14.74;49.39
52249;BME280;38541;48.130;8.378;2023-03-23T13:13:04;92290.06;;;14.84;50.33
52249;BME280;38541;48.130;8.378;2023-03-23T13:15:40;92286.84;;;14.88;49.65
52249;BME280;38541;48.130;8.378;2023-03-23T13:20:53;92308.97;;;14.27;51.02
52249;BME280;38541;48.130;8.378;2023-03-23T13:23:33;92279.28;;;14.44;51.50
52249;BME280;38541;48.130;8.378;2023-03-23T13:26:06;92289.63;;;14.68;51.31
52249;BME280;38541;48.130;8.378;2023-03-23T13:28:51;92287.09;;;14.63;51.22
52249;BME280;38541;48.130;8.378;2023-03-23T13:31:30;92286.50;;;14.66;51.20
52249;BME280;38541;48.130;8.378;2023-03-23T13:34:18;92275.97;;;14.52;52.10
52249;BME280;38541;48.130;8.378;2023-03-23T13:36:56;92278.75;;;14.56;52.65
52249;BME280;38541;48.130;8.378;2023-03-23T13:39:26;92279.38;;;14.53;52.28
52249;BME280;38541;48.130;8.378;2023-03-23T13:49:51;92271.56;;;14.84;50.91
52249;BME280;38541;48.130;8.378;2023-03-23T13:52:46;92285.59;;;15.08;50.62
52249;BME280;38541;48.130;8.378;2023-03-23T14:05:49;92274.09;;;15.12;50.31
52249;BME280;38541;48.130;8.378;2023-03-23T14:08:37;92264.63;;;15.43;49.74
52249;BME280;38541;48.130;8.378;2023-03-23T14:11:13;92264.28;;;15.67;49.46
52249;BME280;38541;48.130;8.378;2023-03-23T14:16:24;92249.16;;;15.36;50.87
52249;BME280;38541;48.130;8.378;2023-03-23T14:21:26;92246.38;;;15.82;48.61
52249;BME280;38541;48.130;8.378;2023-03-23T14:23:55;92251.34;;;15.75;49.45
52249;BME280;38541;48.130;8.378;2023-03-23T14:26:22;92239.97;;;15.65;51.34
52249;BME280;38541;48.130;8.378;2023-03-23T14:28:50;92241.69;;;15.70;49.97
52249;BME280;38541;48.130;8.378;2023-03-23T14:31:27;92242.50;;;15.39;51.04
52249;BME280;38541;48.130;8.378;2023-03-23T14:33:54;92241.09;;;15.41;50.07
52249;BME280;38541;48.130;8.378;2023-03-23T14:36:23;92247.50;;;15.18;50.87
52249;BME280;38541;48.130;8.378;2023-03-23T14:39:12;92248.13;;;15.15;52.07
52249;BME280;38541;48.130;8.378;2023-03-23T14:41:39;92249.31;;;14.86;52.78
52249;BME280;38541;48.130;8.378;2023-03-23T14:44:07;92244.75;;;14.77;52.08
52249;BME280;38541;48.130;8.378;2023-03-23T14:46:34;92242.94;;;14.87;51.55
52249;BME280;38541;48.130;8.378;2023-03-23T14:49:02;92229.94;;;14.53;53.37
52249;BME280;38541;48.130;8.378;2023-03-23T14:51:29;92241.38;;;14.86;53.51
52249;BME280;38541;48.130;8.378;2023-03-23T14:53:58;92238.09;;;14.66;51.41
52249;BME280;38541;48.130;8.378;2023-03-23T14:56:33;92229.78;;;14.36;53.20
52249;BME280;38541;48.130;8.378;2023-03-23T14:59:04;92230.59;;;14.59;52.43
52249;BME280;38541;48.130;8.378;2023-03-23T15:01:32;92220.97;;;14.77;52.08
52249;BME280;38541;48.130;8.378;2023-03-23T15:04:04;92220.47;;;14.75;51.88
52249;BME280;38541;48.130;8.378;2023-03-23T15:06:34;92213.84;;;14.64;52.65
52249;BME280;38541;48.130;8.378;2023-03-23T15:09:04;92220.59;;;14.93;52.92
52249;BME280;38541;48.130;8.378;2023-03-23T15:11:33;92221.31;;;14.84;53.47
52249;BME280;38541;48.130;8.378;2023-03-23T15:14:07;92222.66;;;14.73;52.01
52249;BME280;38541;48.130;8.378;2023-03-23T15:16:34;92227.34;;;14.76;52.52